createdAt,value
2019-02-28T00:00:45.665Z,76.12
2019-02-28T00:03:17.253Z,76.72
2019-02-28T00:05:48.636Z,76.82
2019-02-28T00:08:20.115Z,77.12
2019-02-28T00:10:51.548Z,77.41
2019-02-28T00:13:22.783Z,77.84
2019-02-28T00:15:54.127Z,77.95
2019-02-28T00:18:25.358Z,77.62
2019-02-28T00:20:58.742Z,78.18
2019-02-28T00:23:30.004Z,78.28
2019-02-28T00:26:01.263Z,78.65
2019-02-28T00:28:32.605Z,78.68
2019-02-28T00:31:04.101Z,78.73
2019-02-28T00:33:35.314Z,79.12
2019-02-28T00:36:06.609Z,79.20
2019-02-28T00:38:37.866Z,79.74
2019-02-28T00:41:10.258Z,79.87
2019-02-28T00:43:41.705Z,80.04
2019-02-28T00:46:13.214Z,79.92
2019-02-28T00:48:44.710Z,79.50
2019-02-28T00:51:15.989Z,79.59
2019-02-28T00:53:47.147Z,79.61
2019-02-28T00:56:18.611Z,79.75
2019-02-28T00:58:50.005Z,80.15
2019-02-28T01:01:21.509Z,79.78
2019-02-28T01:04:11.751Z,80.07
2019-02-28T01:07:01.956Z,80.19
2019-02-28T01:09:33.149Z,80.26
2019-02-28T01:12:04.613Z,80.83
2019-02-28T01:14:36.669Z,81.16
2019-02-28T01:17:07.987Z,81.23
2019-02-28T01:19:41.343Z,80.85
2019-02-28T01:22:12.198Z,81.17
2019-02-28T01:24:43.472Z,81.56
2019-02-28T01:27:17.326Z,81.81
2019-02-28T01:29:47.706Z,82.12
2019-02-28T01:32:18.897Z,82.64
2019-02-28T01:34:50.131Z,82.59
2019-02-28T01:37:21.969Z,82.17
2019-02-28T01:39:53.300Z,82.37
2019-02-28T01:42:24.530Z,82.42
2019-02-28T01:44:55.838Z,82.42
2019-02-28T01:47:27.173Z,82.70
2019-02-28T01:49:58.806Z,82.79
2019-02-28T01:52:30.121Z,83.23
2019-02-28T01:55:01.682Z,83.18
2019-02-28T01:57:32.937Z,82.47
2019-02-28T02:00:04.339Z,82.59
2019-02-28T02:02:38.006Z,82.68
2019-02-28T02:05:09.277Z,83.00
2019-02-28T02:07:40.503Z,83.30
2019-02-28T02:10:30.841Z,83.29
2019-02-28T02:13:03.204Z,83.50
2019-02-28T02:15:35.485Z,84.10
2019-02-28T02:18:09.470Z,83.99
2019-02-28T02:20:39.706Z,83.72
2019-02-28T02:23:10.910Z,83.39
2019-02-28T02:25:42.288Z,84.09
2019-02-28T02:28:13.616Z,84.38
2019-02-28T02:30:50.583Z,84.14
2019-02-28T02:33:18.717Z,84.31
2019-02-28T02:35:50.014Z,84.52
2019-02-28T02:38:21.360Z,84.60
2019-02-28T02:40:59.262Z,84.74
2019-02-28T02:43:25.656Z,84.89
2019-02-28T02:45:56.825Z,85.03
2019-02-28T02:48:28.105Z,85.07
2019-02-28T02:50:59.468Z,84.96
2019-02-28T02:53:30.896Z,85.05
2019-02-28T02:56:03.904Z,85.00
2019-02-28T02:58:35.210Z,85.02
2019-02-28T03:01:06.675Z,85.11
2019-02-28T03:03:42.698Z,85.13
2019-02-28T03:06:14.036Z,85.30
2019-02-28T03:08:43.944Z,85.22
2019-02-28T03:11:15.173Z,85.38
2019-02-28T03:13:46.483Z,85.28
2019-02-28T03:16:18.020Z,85.37
2019-02-28T03:18:49.314Z,85.38
2019-02-28T03:21:20.676Z,85.61
2019-02-28T03:23:51.992Z,85.58
2019-02-28T03:26:23.365Z,85.60
2019-02-28T03:28:54.662Z,85.66
2019-02-28T03:31:25.967Z,85.59
2019-02-28T03:34:10.101Z,85.83
2019-02-28T03:36:30.190Z,85.82
2019-02-28T03:39:01.514Z,86.00
2019-02-28T03:41:33.016Z,86.11
2019-02-28T03:44:04.342Z,86.18
2019-02-28T03:46:35.716Z,86.24
2019-02-28T03:49:10.934Z,86.30
2019-02-28T03:51:39.984Z,86.17
2019-02-28T03:54:11.368Z,86.28
2019-02-28T03:56:42.770Z,86.28
2019-02-28T03:59:18.188Z,86.18
2019-02-28T04:01:47.141Z,86.22
2019-02-28T04:04:21.224Z,86.24
2019-02-28T04:06:52.667Z,86.17
2019-02-28T04:09:24.144Z,86.20
2019-02-28T04:11:55.375Z,86.21
2019-02-28T04:14:28.592Z,86.32
2019-02-28T04:16:59.913Z,86.45
2019-02-28T04:19:33.631Z,86.83
2019-02-28T04:22:05.004Z,86.71
2019-02-28T04:24:55.275Z,86.51
2019-02-28T04:27:26.618Z,86.39
2019-02-28T04:29:57.830Z,86.20
2019-02-28T04:32:29.131Z,86.25
2019-02-28T04:35:00.533Z,86.60
2019-02-28T04:37:31.861Z,86.75
2019-02-28T04:40:03.114Z,86.84
2019-02-28T04:42:36.638Z,86.93
2019-02-28T04:45:08.881Z,87.04
2019-02-28T04:47:41.466Z,87.06
2019-02-28T04:50:13.387Z,86.98
2019-02-28T04:52:48.067Z,86.95
2019-02-28T04:55:19.989Z,87.00
2019-02-28T04:57:52.237Z,87.25
2019-02-28T05:00:23.717Z,87.29
2019-02-28T05:02:55.123Z,87.46
2019-02-28T05:05:26.414Z,87.41
2019-02-28T05:07:57.741Z,87.36
2019-02-28T05:10:31.495Z,87.37
2019-02-28T05:13:02.752Z,87.41
2019-02-28T05:15:37.323Z,87.38
2019-02-28T05:18:06.575Z,87.49
2019-02-28T05:20:37.892Z,87.53
2019-02-28T05:23:09.134Z,87.52
2019-02-28T05:25:40.929Z,87.41
2019-02-28T05:28:12.217Z,87.08
2019-02-28T05:31:02.482Z,86.65
2019-02-28T05:33:33.736Z,86.59
2019-02-28T05:36:05.127Z,86.55
2019-02-28T05:38:36.367Z,86.66
2019-02-28T05:41:08.200Z,86.78
2019-02-28T05:43:40.576Z,86.81
2019-02-28T05:46:11.822Z,86.90
2019-02-28T05:48:43.035Z,86.94
2019-02-28T05:51:14.268Z,86.97
2019-02-28T05:53:45.499Z,87.08
2019-02-28T05:56:16.851Z,87.11
2019-02-28T05:58:49.363Z,87.20
2019-02-28T06:01:21.072Z,87.25
2019-02-28T06:03:52.268Z,87.47
2019-02-28T06:06:23.572Z,87.37
2019-02-28T06:08:54.835Z,87.32
2019-02-28T06:11:26.187Z,87.55
2019-02-28T06:13:57.472Z,87.46
2019-02-28T06:16:28.792Z,87.34
2019-02-28T06:19:00.102Z,87.51
2019-02-28T06:21:31.634Z,87.32
2019-02-28T06:24:05.870Z,87.29
2019-02-28T06:26:37.065Z,87.31
2019-02-28T06:29:08.355Z,87.45
2019-02-28T06:31:39.622Z,87.60
2019-02-28T06:34:11.008Z,87.54
2019-02-28T06:37:03.831Z,87.53
2019-02-28T06:39:34.483Z,87.77
2019-02-28T06:42:05.890Z,87.81
2019-02-28T06:44:37.235Z,87.87
2019-02-28T06:47:11.333Z,87.66
2019-02-28T06:49:44.923Z,87.63
2019-02-28T06:52:16.387Z,87.87
2019-02-28T06:54:47.654Z,87.97
2019-02-28T06:57:19.179Z,88.15
2019-02-28T06:59:50.611Z,88.29
2019-02-28T07:02:34.204Z,88.42
2019-02-28T07:05:05.667Z,88.48
2019-02-28T07:07:37.210Z,88.53
2019-02-28T07:10:12.682Z,88.49
2019-02-28T07:12:43.253Z,88.47
2019-02-28T07:15:15.153Z,88.44
2019-02-28T07:17:47.598Z,88.42
2019-02-28T07:20:19.430Z,88.56
2019-02-28T07:22:54.301Z,88.53
2019-02-28T07:25:24.524Z,88.17
2019-02-28T07:27:55.791Z,86.86
2019-02-28T07:30:27.073Z,85.98
2019-02-28T07:32:58.439Z,83.71
2019-02-28T07:35:34.216Z,83.22
2019-02-28T07:38:02.974Z,82.23
2019-02-28T07:40:34.308Z,78.09
2019-02-28T07:43:05.711Z,78.27
2019-02-28T07:45:37.014Z,77.18
2019-02-28T07:48:08.476Z,74.11
2019-02-28T07:50:39.912Z,73.32
2019-02-28T07:53:11.224Z,72.86
2019-02-28T07:55:42.504Z,71.08
2019-02-28T07:58:13.846Z,68.73
2019-02-28T08:00:45.148Z,68.48
2019-02-28T08:03:16.434Z,67.80
2019-02-28T08:05:47.613Z,66.22
2019-02-28T08:08:19.161Z,63.45
2019-02-28T08:10:50.433Z,62.95
2019-02-28T08:13:21.858Z,62.56
2019-02-28T08:15:53.319Z,63.39
2019-02-28T08:18:26.084Z,62.60
2019-02-28T08:20:57.353Z,62.76
2019-02-28T08:23:30.205Z,63.30
2019-02-28T08:26:01.775Z,64.81
2019-02-28T08:28:36.675Z,65.03
2019-02-28T08:31:07.052Z,63.96
2019-02-28T08:33:38.429Z,60.88
2019-02-28T08:36:12.573Z,60.87
2019-02-28T08:38:43.728Z,60.71
2019-02-28T08:41:15.323Z,58.66
2019-02-28T08:43:47.876Z,58.60
2019-02-28T08:46:19.546Z,57.96
2019-02-28T08:48:50.997Z,57.46
2019-02-28T08:51:23.080Z,56.12
2019-02-28T08:53:54.486Z,57.23
2019-02-28T08:56:25.721Z,56.51
2019-02-28T08:58:57.120Z,56.10
2019-02-28T09:01:28.472Z,55.99
2019-02-28T09:04:04.780Z,56.05
2019-02-28T09:06:32.816Z,55.23
2019-02-28T09:09:05.448Z,56.68
2019-02-28T09:11:36.651Z,56.88
2019-02-28T09:14:07.900Z,55.95
2019-02-28T09:16:39.716Z,55.03
2019-02-28T09:19:11.541Z,55.20
2019-02-28T09:21:42.748Z,55.85
2019-02-28T09:24:14.113Z,55.38
2019-02-28T09:26:46.200Z,54.67
2019-02-28T09:29:18.333Z,55.51
2019-02-28T09:31:50.594Z,55.45
2019-02-28T09:34:21.829Z,54.19
2019-02-28T09:36:56.658Z,52.92
2019-02-28T09:39:25.920Z,53.58
2019-02-28T09:41:57.256Z,55.33
2019-02-28T09:44:31.524Z,55.14
2019-02-28T09:47:01.544Z,55.17
2019-02-28T09:49:32.950Z,55.09
2019-02-28T09:52:06.429Z,55.84
2019-02-28T09:54:37.238Z,56.76
2019-02-28T09:57:08.617Z,57.34
2019-02-28T09:59:39.871Z,56.18
2019-02-28T10:02:11.176Z,55.30
2019-02-28T10:04:42.586Z,56.26
2019-02-28T10:07:13.862Z,56.06
2019-02-28T10:09:46.847Z,58.48
2019-02-28T10:12:18.110Z,58.77
2019-02-28T10:14:49.457Z,57.01
2019-02-28T10:17:22.615Z,57.48
2019-02-28T10:19:53.708Z,58.31
2019-02-28T10:22:25.011Z,58.41
2019-02-28T10:24:56.284Z,58.87
2019-02-28T10:27:27.710Z,57.89
2019-02-28T10:29:59.862Z,57.79
2019-02-28T10:32:31.124Z,58.64
2019-02-28T10:35:02.424Z,58.28
2019-02-28T10:37:33.656Z,57.51
2019-02-28T10:40:05.380Z,57.76
2019-02-28T10:42:39.864Z,56.87
2019-02-28T10:45:11.310Z,57.22
2019-02-28T10:47:42.765Z,58.55
2019-02-28T10:50:17.417Z,57.63
2019-02-28T10:52:48.887Z,56.28
2019-02-28T10:55:22.381Z,56.92
2019-02-28T10:57:53.526Z,56.55
2019-02-28T11:00:32.573Z,56.74
2019-02-28T11:03:05.376Z,56.58
2019-02-28T11:05:37.122Z,56.00
2019-02-28T11:08:12.875Z,55.94
2019-02-28T11:10:44.454Z,55.90
2019-02-28T11:13:18.343Z,55.35
2019-02-28T11:15:50.179Z,55.24
2019-02-28T11:18:21.625Z,54.83
2019-02-28T11:20:53.038Z,54.94
2019-02-28T11:23:25.414Z,54.82
2019-02-28T11:25:57.284Z,54.17
2019-02-28T11:28:29.342Z,54.00
2019-02-28T11:31:00.614Z,54.99
2019-02-28T11:33:32.156Z,54.32
2019-02-28T11:36:03.404Z,54.42
2019-02-28T11:38:34.792Z,55.01
2019-02-28T11:41:06.354Z,54.90
2019-02-28T11:43:38.657Z,54.73
2019-02-28T11:46:11.696Z,54.38
2019-02-28T11:48:43.236Z,55.04
2019-02-28T11:51:17.511Z,53.53
2019-02-28T11:53:47.643Z,52.37
2019-02-28T11:56:18.981Z,52.07
2019-02-28T11:58:51.557Z,52.09
2019-02-28T12:01:23.400Z,51.74
2019-02-28T12:03:54.755Z,52.22
2019-02-28T12:06:26.390Z,52.08
2019-02-28T12:09:19.245Z,52.54
2019-02-28T12:11:49.923Z,52.81
2019-02-28T12:14:21.137Z,52.46
2019-02-28T12:16:53.636Z,52.40
2019-02-28T12:19:25.133Z,52.82
2019-02-28T12:21:56.536Z,54.11
2019-02-28T12:24:29.448Z,54.61
2019-02-28T12:27:01.162Z,53.28
2019-02-28T12:29:32.637Z,55.29
2019-02-28T12:32:19.152Z,55.45
2019-02-28T12:35:01.363Z,56.16
2019-02-28T12:37:31.547Z,56.29
2019-02-28T12:40:10.301Z,56.48
2019-02-28T12:42:42.997Z,55.85
2019-02-28T12:45:26.405Z,56.64
2019-02-28T12:47:59.253Z,55.73
2019-02-28T12:50:37.856Z,56.14
2019-02-28T12:53:09.065Z,56.35
2019-02-28T12:55:40.366Z,55.51
2019-02-28T12:58:11.675Z,55.68
2019-02-28T13:00:43.391Z,55.55
2019-02-28T13:03:19.436Z,55.54
2019-02-28T13:05:49.486Z,56.12
2019-02-28T13:08:20.789Z,56.65
2019-02-28T13:10:54.041Z,56.50
2019-02-28T13:13:27.483Z,56.84
2019-02-28T13:15:58.838Z,56.88
2019-02-28T13:18:30.372Z,56.01
2019-02-28T13:21:01.801Z,56.85
2019-02-28T13:23:34.074Z,56.88
2019-02-28T13:26:05.766Z,56.55
2019-02-28T13:28:37.284Z,56.31
2019-02-28T13:31:08.745Z,56.01
2019-02-28T13:33:40.042Z,55.96
2019-02-28T13:36:12.942Z,56.54
2019-02-28T13:38:44.539Z,57.36
2019-02-28T13:41:18.190Z,56.18
2019-02-28T13:43:49.097Z,56.71
2019-02-28T13:46:20.530Z,56.58
2019-02-28T13:48:52.033Z,56.66
2019-02-28T13:51:23.400Z,56.96
2019-02-28T13:53:54.732Z,57.44
2019-02-28T13:56:29.100Z,57.56
2019-02-28T13:58:59.270Z,56.52
2019-02-28T14:01:30.634Z,56.89
2019-02-28T14:04:01.964Z,56.70
2019-02-28T14:06:33.333Z,56.81
2019-02-28T14:09:05.489Z,56.02
2019-02-28T14:11:37.217Z,56.12
2019-02-28T14:14:09.057Z,55.63
2019-02-28T14:16:40.465Z,55.07
2019-02-28T14:19:11.928Z,55.71
2019-02-28T14:21:43.330Z,56.27
2019-02-28T14:24:14.793Z,56.57
2019-02-28T14:26:46.570Z,57.63
2019-02-28T14:29:19.232Z,59.72
2019-02-28T14:31:50.575Z,61.09
2019-02-28T14:34:22.091Z,62.65
2019-02-28T14:36:53.729Z,63.53
2019-02-28T14:39:28.577Z,64.12
2019-02-28T14:42:03.044Z,64.53
2019-02-28T14:44:33.119Z,64.89
2019-02-28T14:47:07.923Z,65.61
2019-02-28T14:49:45.991Z,66.10
2019-02-28T14:52:17.513Z,66.29
2019-02-28T14:54:48.921Z,66.24
2019-02-28T14:57:20.427Z,66.59
2019-02-28T14:59:51.907Z,66.86
2019-02-28T15:02:27.905Z,67.08
2019-02-28T15:04:56.597Z,67.02
2019-02-28T15:07:35.314Z,67.12
2019-02-28T15:10:14.132Z,67.64
2019-02-28T15:12:45.317Z,68.17
2019-02-28T15:15:19.318Z,67.99
2019-02-28T15:17:51.631Z,68.24
2019-02-28T15:20:22.962Z,68.14
2019-02-28T15:22:56.184Z,68.10
2019-02-28T15:25:30.455Z,67.75
2019-02-28T15:28:05.227Z,67.76
2019-02-28T15:30:48.522Z,67.32
2019-02-28T15:33:20.966Z,66.93
2019-02-28T15:35:52.519Z,67.41
2019-02-28T15:38:25.099Z,66.95
2019-02-28T15:41:07.041Z,67.06
2019-02-28T15:43:39.138Z,67.27
2019-02-28T15:46:12.010Z,67.56
2019-02-28T15:48:45.725Z,67.50
2019-02-28T15:51:17.295Z,67.79
2019-02-28T15:54:07.102Z,67.52
2019-02-28T15:56:42.241Z,67.78
2019-02-28T15:59:15.637Z,67.33
2019-02-28T16:01:47.377Z,66.98
2019-02-28T16:04:18.976Z,66.96
2019-02-28T16:06:56.434Z,66.88
2019-02-28T16:09:24.823Z,66.94
2019-02-28T16:11:56.326Z,66.73
2019-02-28T16:14:27.821Z,66.32
2019-02-28T16:17:00.291Z,66.94
2019-02-28T16:19:32.219Z,66.86
2019-02-28T16:22:04.402Z,67.04
2019-02-28T16:24:36.673Z,67.17
2019-02-28T16:27:08.968Z,67.07
2019-02-28T16:29:40.421Z,67.02
2019-02-28T16:32:14.158Z,67.38
2019-02-28T16:34:45.157Z,67.37
2019-02-28T16:37:16.535Z,67.46
2019-02-28T16:39:49.128Z,66.93
2019-02-28T16:42:21.216Z,67.07
2019-02-28T16:44:52.907Z,66.86
2019-02-28T16:47:25.134Z,66.88
2019-02-28T16:50:06.404Z,67.07
2019-02-28T16:52:39.930Z,67.00
2019-02-28T16:55:15.951Z,67.29
2019-02-28T16:57:48.112Z,67.10
2019-02-28T17:00:20.095Z,67.18
2019-02-28T17:02:51.735Z,67.43
2019-02-28T17:05:28.109Z,67.81
2019-02-28T17:07:57.913Z,67.87
2019-02-28T17:10:34.151Z,67.90
2019-02-28T17:13:24.480Z,67.84
2019-02-28T17:16:25.545Z,68.30
2019-02-28T17:19:00.413Z,68.16
2019-02-28T17:21:31.772Z,68.10
2019-02-28T17:24:03.419Z,68.10
2019-02-28T17:27:06.146Z,68.24
2019-02-28T17:30:00.398Z,68.21
2019-02-28T17:32:50.622Z,68.34
2019-02-28T17:35:25.012Z,68.25
2019-02-28T17:37:59.855Z,68.44
2019-02-28T17:40:29.999Z,68.22
2019-02-28T17:43:05.011Z,68.37
2019-02-28T17:45:39.220Z,68.11
2019-02-28T17:49:26.440Z,68.25
2019-02-28T17:52:30.457Z,68.33
2019-02-28T17:56:07.462Z,68.27
2019-02-28T17:59:36.154Z,68.17
2019-02-28T18:02:38.306Z,68.15
2019-02-28T18:06:01.938Z,67.83
2019-02-28T18:08:59.640Z,68.42
2019-02-28T18:12:44.052Z,68.01
2019-02-28T18:15:46.860Z,68.17
2019-02-28T18:18:57.338Z,68.03
2019-02-28T18:22:30.627Z,67.70
2019-02-28T18:26:21.182Z,67.29
2019-02-28T18:30:02.496Z,67.43
2019-02-28T18:32:34.259Z,67.56
2019-02-28T18:35:05.839Z,67.72
2019-02-28T18:37:37.159Z,67.63
2019-02-28T18:40:08.905Z,67.64
2019-02-28T18:42:40.390Z,68.15
2019-02-28T18:45:15.544Z,68.20
2019-02-28T18:47:52.071Z,68.24
2019-02-28T18:50:23.708Z,68.94
2019-02-28T18:52:55.229Z,69.88
2019-02-28T18:55:34.659Z,69.84
2019-02-28T18:58:01.353Z,70.12
2019-02-28T19:00:33.197Z,70.32
2019-02-28T19:03:04.921Z,71.15
2019-02-28T19:05:48.076Z,72.09
2019-02-28T19:08:19.240Z,72.54
2019-02-28T19:10:50.594Z,72.77
2019-02-28T19:13:22.581Z,72.57
2019-02-28T19:16:03.214Z,72.68
2019-02-28T19:18:37.806Z,72.41
2019-02-28T19:21:09.092Z,72.08
2019-02-28T19:23:40.596Z,72.07
2019-02-28T19:26:13.249Z,72.44
2019-02-28T19:28:45.369Z,72.41
2019-02-28T19:31:16.794Z,72.44
2019-02-28T19:33:51.349Z,72.52
2019-02-28T19:36:22.793Z,72.02
2019-02-28T19:38:54.620Z,71.90
2019-02-28T19:41:28.901Z,71.89
2019-02-28T19:44:00.564Z,71.40
2019-02-28T19:46:32.174Z,71.13
2019-02-28T19:49:22.799Z,71.37
2019-02-28T19:51:54.583Z,71.29
2019-02-28T19:54:26.082Z,71.23
2019-02-28T19:56:57.483Z,70.90
2019-02-28T19:59:28.948Z,70.90
2019-02-28T20:02:03.632Z,71.01
2019-02-28T20:04:38.114Z,71.26
2019-02-28T20:07:09.747Z,71.36
2019-02-28T20:09:41.353Z,71.44
2019-02-28T20:12:12.849Z,71.79
2019-02-28T20:14:44.616Z,72.16
2019-02-28T20:17:16.489Z,72.98
2019-02-28T20:19:52.995Z,73.55
2019-02-28T20:22:24.181Z,74.30
2019-02-28T20:24:55.652Z,74.99
2019-02-28T20:27:26.956Z,74.72
2019-02-28T20:29:58.273Z,74.47
2019-02-28T20:32:29.543Z,74.66
2019-02-28T20:35:00.894Z,74.68
2019-02-28T20:37:34.707Z,74.39
2019-02-28T20:40:07.556Z,74.95
2019-02-28T20:42:38.950Z,75.08
2019-02-28T20:45:11.426Z,74.75
2019-02-28T20:47:42.756Z,74.50
2019-02-28T20:50:35.963Z,74.22
2019-02-28T20:53:07.469Z,73.71
2019-02-28T20:55:38.823Z,73.38
2019-02-28T20:58:10.067Z,73.33
2019-02-28T21:00:41.394Z,73.64
2019-02-28T21:03:12.887Z,73.97
2019-02-28T21:05:44.406Z,75.09
2019-02-28T21:08:15.728Z,75.22
2019-02-28T21:10:47.157Z,75.29
2019-02-28T21:13:18.859Z,75.41
2019-02-28T21:15:50.247Z,75.71
2019-02-28T21:18:21.620Z,75.91
2019-02-28T21:20:53.009Z,75.84
2019-02-28T21:23:24.574Z,76.10
2019-02-28T21:25:57.272Z,76.66
2019-02-28T21:28:28.617Z,76.73
2019-02-28T21:30:59.997Z,76.19
2019-02-28T21:33:31.393Z,76.18
2019-02-28T21:36:02.792Z,75.99
2019-02-28T21:38:34.100Z,76.01
2019-02-28T21:41:05.471Z,75.45
2019-02-28T21:43:36.740Z,75.35
2019-02-28T21:46:11.009Z,75.39
2019-02-28T21:48:42.296Z,75.15
2019-02-28T21:51:13.852Z,75.08
2019-02-28T21:53:46.751Z,74.94
2019-02-28T21:56:21.070Z,75.18
2019-02-28T21:58:55.440Z,75.07
2019-02-28T22:01:45.998Z,75.14
2019-02-28T22:04:17.189Z,75.12
2019-02-28T22:06:48.566Z,75.26
2019-02-28T22:09:19.969Z,75.35
2019-02-28T22:11:51.342Z,75.77
2019-02-28T22:14:22.860Z,76.59
2019-02-28T22:16:54.368Z,76.79
2019-02-28T22:19:25.813Z,76.92
2019-02-28T22:22:01.440Z,76.95
2019-02-28T22:24:36.038Z,76.79
2019-02-28T22:27:10.832Z,76.78
2019-02-28T22:29:42.125Z,76.94
2019-02-28T22:32:24.184Z,76.78
2019-02-28T22:35:09.088Z,77.15
2019-02-28T22:37:44.977Z,76.88
2019-02-28T22:40:18.550Z,77.32
2019-02-28T22:42:58.443Z,77.21
2019-02-28T22:45:35.721Z,77.50
2019-02-28T22:48:08.151Z,77.33
2019-02-28T22:50:39.453Z,77.27
2019-02-28T22:53:10.678Z,76.97
2019-02-28T22:55:41.881Z,77.01
2019-02-28T22:58:13.315Z,77.00
2019-02-28T23:01:15.301Z,77.43
2019-02-28T23:03:46.567Z,77.58
2019-02-28T23:06:17.973Z,77.85
2019-02-28T23:09:09.108Z,77.92
2019-02-28T23:11:40.404Z,77.49
2019-02-28T23:14:11.708Z,77.18
2019-02-28T23:16:43.164Z,77.51
2019-02-28T23:19:14.445Z,77.93
2019-02-28T23:21:45.804Z,77.65
2019-02-28T23:24:17.060Z,77.91
2019-02-28T23:27:16.607Z,77.66
2019-02-28T23:30:27.033Z,77.87
2019-02-28T23:33:06.146Z,78.24
2019-02-28T23:35:41.052Z,77.73
2019-02-28T23:38:12.346Z,77.80
2019-02-28T23:40:43.530Z,77.94
2019-02-28T23:43:14.832Z,77.60
2019-02-28T23:45:46.159Z,77.53
2019-02-28T23:48:17.469Z,77.42
2019-02-28T23:50:48.685Z,77.68
2019-02-28T23:53:20.087Z,77.56
2019-02-28T23:55:51.364Z,78.00
2019-02-28T23:58:22.675Z,78.22
